Time;durP1;ratioP1;P1;durP2;ratioP2;P2;SDS_P1;SDS_P2;PMS_P1;PMS_P2;Temp;Humidity;BMP_temperature;BMP_pressure;BME280_temperature;BME280_humidity;BME280_pressure;Samples;Min_cycle;Max_cycle;Signal;HPM_P1;HPM_P2
2022/12/02 00:01:13;;;;;;;20.25;8.18;;;;;;;0.50;100.00;94072.31;4991629;28;20057;-65
2022/12/02 00:03:40;;;;;;;21.10;8.48;;;;;;;0.67;100.00;94067.72;4991758;28;20100;-65
2022/12/02 00:06:30;;;;;;;20.10;8.63;;;;;;;0.81;100.00;94064.56;4991181;28;20789;-65
2022/12/02 00:09:25;;;;;;;19.58;7.70;;;;;;;0.64;100.00;94060.28;4991645;28;20059;-65
2022/12/02 00:11:52;;;;;;;20.80;8.30;;;;;;;0.67;100.00;94057.69;4991385;28;20053;-67
2022/12/02 00:14:22;;;;;;;20.35;7.93;;;;;;;0.83;100.00;94048.81;4991792;28;20407;-66
2022/12/02 00:16:50;;;;;;;19.92;8.50;;;;;;;0.80;100.00;94055.66;4991423;28;20050;-66
2022/12/02 00:19:17;;;;;;;20.35;8.18;;;;;;;0.92;100.00;94052.84;4991354;28;20048;-66
2022/12/02 00:21:44;;;;;;;20.67;8.52;;;;;;;0.68;100.00;94053.84;4990518;28;20047;-65
2022/12/02 00:24:10;;;;;;;22.42;8.55;;;;;;;0.70;100.00;94056.19;4991288;28;20384;-66
2022/12/02 00:26:37;;;;;;;23.73;8.80;;;;;;;0.47;100.00;94051.41;4991291;28;20411;-66
2022/12/02 00:29:04;;;;;;;24.67;8.80;;;;;;;0.42;100.00;94043.56;4991131;28;20042;-66
2022/12/02 00:31:31;;;;;;;22.25;8.68;;;;;;;0.44;100.00;94045.91;4991429;28;20046;-66
2022/12/02 00:33:59;;;;;;;27.58;9.88;;;;;;;0.56;100.00;94046.63;4991334;28;20042;-66
2022/12/02 00:36:27;;;;;;;25.70;9.35;;;;;;;0.42;100.00;94040.06;4988637;28;20072;-66
2022/12/02 00:38:55;;;;;;;26.23;9.27;;;;;;;0.25;100.00;94033.13;4972478;28;20405;-65
2022/12/02 00:41:22;;;;;;;27.25;9.73;;;;;;;0.41;100.00;94031.19;4981661;28;20048;-66
2022/12/02 00:46:36;;;;;;;35.30;12.45;;;;;;;0.39;100.00;94038.88;4990853;28;20046;-66
2022/12/02 00:49:05;;;;;;;26.48;10.68;;;;;;;0.48;100.00;94035.97;4990461;28;20046;-66
2022/12/02 00:51:33;;;;;;;25.17;9.07;;;;;;;0.43;100.00;94028.94;4990833;28;20050;-66
2022/12/02 00:54:00;;;;;;;28.42;9.57;;;;;;;0.45;100.00;94034.00;4990343;28;20050;-66
2022/12/02 00:56:27;;;;;;;24.25;9.93;;;;;;;0.23;100.00;94036.16;4990607;28;20385;-66
2022/12/02 00:58:54;;;;;;;25.13;8.82;;;;;;;0.25;100.00;94020.41;4990274;28;20065;-66
2022/12/02 01:01:21;;;;;;;23.95;8.95;;;;;;;0.49;100.00;94032.94;4990650;28;20039;-66
2022/12/02 01:03:48;;;;;;;24.35;9.10;;;;;;;0.57;100.00;94033.91;4990549;28;20057;-65
2022/12/02 01:06:15;;;;;;;25.27;9.18;;;;;;;0.46;100.00;94025.53;4990889;28;20058;-66
2022/12/02 01:08:42;;;;;;;23.27;8.65;;;;;;;0.42;100.00;94023.88;4990218;28;20046;-65
2022/12/02 01:11:09;;;;;;;23.77;9.43;;;;;;;0.37;100.00;94030.31;4990579;28;20069;-66
2022/12/02 01:13:36;;;;;;;22.73;8.65;;;;;;;0.57;100.00;94028.50;4990508;28;20085;-68
2022/12/02 01:16:03;;;;;;;22.17;8.47;;;;;;;0.61;100.00;94029.38;4990369;28;20047;-67
2022/12/02 01:18:30;;;;;;;22.50;8.90;;;;;;;0.73;100.00;94026.56;4990229;28;20050;-67
2022/12/02 01:20:57;;;;;;;22.27;9.25;;;;;;;0.53;100.00;94027.63;4990075;28;20054;-67
2022/12/02 01:23:23;;;;;;;23.73;9.55;;;;;;;0.50;100.00;94028.31;4990294;28;20459;-67
2022/12/02 01:25:50;;;;;;;23.05;8.63;;;;;;;0.66;100.00;94033.72;4990303;28;20047;-67
2022/12/02 01:28:17;;;;;;;23.27;8.70;;;;;;;0.72;100.00;94016.88;4990479;28;20046;-67
2022/12/02 01:30:44;;;;;;;24.02;9.60;;;;;;;0.87;100.00;94015.31;4990195;28;20068;-66
2022/12/02 01:33:11;;;;;;;23.33;8.93;;;;;;;0.73;100.00;94023.88;4989801;28;20112;-67
2022/12/02 01:35:37;;;;;;;24.20;9.07;;;;;;;0.63;100.00;94026.34;4990028;28;20043;-68
2022/12/02 01:38:04;;;;;;;23.50;9.55;;;;;;;0.74;100.00;94027.34;4974880;28;20043;-67
2022/12/02 01:40:32;;;;;;;25.67;9.63;;;;;;;0.70;100.00;94026.47;4975022;28;20056;-67
2022/12/02 01:42:59;;;;;;;22.50;8.48;;;;;;;0.75;100.00;94031.63;4988929;28;20050;-67
2022/12/02 01:45:26;;;;;;;20.42;8.18;;;;;;;0.92;100.00;94025.06;4990291;28;20035;-67
2022/12/02 01:47:53;;;;;;;20.75;8.52;;;;;;;0.85;100.00;94027.63;4989914;28;20411;-67
2022/12/02 01:50:20;;;;;;;20.02;7.85;;;;;;;0.30;100.00;94027.44;4990216;28;20046;-67
2022/12/02 01:52:47;;;;;;;19.23;7.55;;;;;;;0.38;100.00;94027.28;4989846;28;20046;-67
2022/12/02 01:55:20;;;;;;;20.25;7.82;;;;;;;0.38;100.00;94024.59;4990456;28;20042;-67
2022/12/02 01:57:47;;;;;;;17.40;7.43;;;;;;;0.32;100.00;94023.28;4976773;28;20062;-67
2022/12/02 02:00:15;;;;;;;18.63;7.80;;;;;;;0.56;100.00;94018.81;4990295;28;20044;-67
2022/12/02 02:02:43;;;;;;;16.95;7.20;;;;;;;0.65;100.00;94019.44;4989823;28;20116;-66
2022/12/02 02:05:10;;;;;;;18.10;7.22;;;;;;;0.57;100.00;94013.06;4990221;28;20041;-67
2022/12/02 02:07:38;;;;;;;16.02;7.22;;;;;;;0.43;100.00;94010.03;4989951;28;20799;-67
2022/12/02 02:10:07;;;;;;;18.33;7.15;;;;;;;0.34;100.00;94012.91;4989699;28;20042;-67
2022/12/02 02:12:34;;;;;;;20.35;7.45;;;;;;;0.46;100.00;94016.66;4989834;28;20039;-67
2022/12/02 02:15:07;;;;;;;15.80;6.93;;;;;;;0.64;100.00;94012.47;4989923;28;20538;-66
2022/12/02 02:17:34;;;;;;;19.00;7.85;;;;;;;0.74;100.00;94014.63;4990345;28;20084;-67
2022/12/02 02:20:04;;;;;;;17.25;7.10;;;;;;;0.87;100.00;94001.03;4989800;28;20569;-67
2022/12/02 02:22:39;;;;;;;19.58;7.18;;;;;;;0.65;100.00;94005.94;4990091;28;20080;-67
2022/12/02 02:25:12;;;;;;;17.40;7.03;;;;;;;0.66;100.00;94001.31;4989491;28;20672;-65
2022/12/02 02:27:51;;;;;;;16.92;6.93;;;;;;;0.82;100.00;93987.78;4989575;28;20045;-65
2022/12/02 02:30:19;;;;;;;15.88;6.80;;;;;;;0.94;100.00;93991.16;4989569;28;20381;-67
2022/12/02 02:32:47;;;;;;;17.17;7.13;;;;;;;0.97;100.00;93992.38;4989841;28;20434;-66
2022/12/02 02:35:14;;;;;;;16.05;6.63;;;;;;;0.81;100.00;93989.72;4989945;28;20092;-66
2022/12/02 02:37:42;;;;;;;16.38;7.10;;;;;;;0.82;100.00;93985.09;4978190;28;20062;-66
2022/12/02 02:40:14;;;;;;;18.77;8.02;;;;;;;0.73;100.00;93986.06;4974310;28;20126;-66
2022/12/02 02:42:48;;;;;;;19.38;7.43;;;;;;;0.62;100.00;93982.31;4976010;28;20085;-65
2022/12/02 02:45:16;;;;;;;20.45;8.00;;;;;;;0.35;100.00;93986.69;4973982;28;20100;-66
2022/12/02 02:47:44;;;;;;;22.67;8.43;;;;;;;0.22;100.00;93977.13;4992784;28;20047;-66
2022/12/02 02:50:11;;;;;;;21.90;7.88;;;;;;;0.51;100.00;93984.00;4993414;28;20080;-66
2022/12/02 02:52:38;;;;;;;22.70;8.73;;;;;;;0.69;100.00;93968.22;4993135;28;20045;-66
2022/12/02 02:55:06;;;;;;;20.80;8.20;;;;;;;0.41;100.00;93973.72;4992752;28;20042;-66
2022/12/02 02:57:35;;;;;;;20.60;8.10;;;;;;;0.71;100.00;93964.03;4992962;28;20487;-66
2022/12/02 03:00:03;;;;;;;21.88;8.50;;;;;;;0.75;100.00;93970.28;4992301;28;20081;-66
2022/12/02 03:02:30;;;;;;;24.73;9.07;;;;;;;0.69;100.00;93966.28;4993001;28;20050;-67
2022/12/02 03:04:57;;;;;;;23.08;8.38;;;;;;;0.72;100.00;93965.56;4991568;28;20045;-67
2022/12/02 03:07:24;;;;;;;24.35;8.52;;;;;;;0.70;100.00;93967.84;4993115;28;20038;-67
2022/12/02 03:09:51;;;;;;;23.83;8.57;;;;;;;0.37;100.00;93969.03;4992910;28;20470;-67
2022/12/02 03:12:18;;;;;;;24.05;8.63;;;;;;;0.73;100.00;93958.28;4992993;28;20053;-66
2022/12/02 03:14:45;;;;;;;25.17;8.65;;;;;;;0.62;100.00;93958.00;4992217;28;20058;-66
2022/12/02 03:17:12;;;;;;;23.58;9.00;;;;;;;0.81;100.00;93948.41;4992841;28;20050;-67
2022/12/02 03:19:39;;;;;;;22.38;8.85;;;;;;;0.99;100.00;93949.56;4992677;28;20058;-67
2022/12/02 03:22:08;;;;;;;23.52;8.90;;;;;;;0.52;100.00;93951.22;4992017;28;21894;-67
2022/12/02 03:24:36;;;;;;;22.42;8.13;;;;;;;0.42;100.00;93951.00;4992750;28;20046;-66
2022/12/02 03:27:05;;;;;;;23.88;8.65;;;;;;;0.51;100.00;93960.47;4992065;28;20042;-66
2022/12/02 03:29:32;;;;;;;21.52;8.32;;;;;;;0.69;100.00;93946.59;4992388;28;20050;-66
2022/12/02 03:32:00;;;;;;;27.40;10.13;;;;;;;0.48;100.00;93954.97;4992046;28;20065;-68
2022/12/02 03:34:28;;;;;;;22.38;8.85;;;;;;;0.26;100.00;93951.78;4992373;28;20188;-67
2022/12/02 03:36:57;;;;;;;24.23;8.52;;;;;;;0.23;100.00;93957.88;4986444;28;20593;-67
2022/12/02 03:39:24;;;;;;;25.08;8.73;;;;;;;0.34;100.00;93963.53;4974492;28;20395;-66
2022/12/02 03:41:51;;;;;;;28.25;9.10;;;;;;;0.30;100.00;93965.34;4988849;28;20121;-66
2022/12/02 03:44:17;;;;;;;22.83;8.13;;;;;;;0.36;100.00;93962.06;4992365;28;20096;-66
2022/12/02 03:46:46;;;;;;;29.40;9.02;;;;;;;0.49;100.00;93953.88;4991620;28;20063;-66
2022/12/02 03:49:15;;;;;;;24.02;8.27;;;;;;;0.28;100.00;93954.13;4992385;28;20408;-67
2022/12/02 03:51:42;;;;;;;27.10;8.52;;;;;;;0.30;100.00;93954.56;4991571;28;20443;-66
2022/12/02 03:54:11;;;;;;;26.63;8.70;;;;;;;0.41;100.00;93955.59;4981610;28;20050;-67
2022/12/02 03:56:39;;;;;;;23.77;8.00;;;;;;;0.36;100.00;93953.97;4973625;28;20053;-68
2022/12/02 03:59:07;;;;;;;23.20;8.02;;;;;;;0.50;100.00;93944.63;4991425;28;20045;-67
2022/12/02 04:01:34;;;;;;;25.10;9.05;;;;;;;0.57;100.00;93948.28;4991869;28;20041;-68
2022/12/02 04:04:00;;;;;;;25.95;8.65;;;;;;;0.60;100.00;93941.38;4990452;28;20056;-67
2022/12/02 04:06:27;;;;;;;23.58;8.57;;;;;;;0.33;100.00;93951.19;4992119;28;20046;-67
2022/12/02 04:08:53;;;;;;;24.07;8.90;;;;;;;0.46;100.00;93943.75;4991638;28;20050;-66
2022/12/02 04:11:20;;;;;;;25.55;8.18;;;;;;;0.46;100.00;93943.75;4991889;28;20396;-66
2022/12/02 04:13:47;;;;;;;23.52;8.43;;;;;;;0.75;100.00;93937.88;4989838;28;20050;-66
2022/12/02 04:16:13;;;;;;;21.63;8.20;;;;;;;0.95;100.00;93932.50;4991621;28;20046;-66
2022/12/02 04:18:40;;;;;;;21.23;8.25;;;;;;;0.67;100.00;93928.03;4991409;28;20065;-67
2022/12/02 04:21:07;;;;;;;24.90;8.60;;;;;;;0.60;100.00;93930.56;4991039;28;20492;-66
2022/12/02 04:23:33;;;;;;;24.35;8.75;;;;;;;0.66;100.00;93931.88;4991552;28;20442;-67
2022/12/02 04:26:00;;;;;;;25.00;8.23;;;;;;;0.72;100.00;93927.75;4990860;28;20042;-67
2022/12/02 04:28:27;;;;;;;21.58;8.23;;;;;;;0.55;100.00;93928.16;4990967;28;20446;-67
2022/12/02 04:30:53;;;;;;;23.95;8.75;;;;;;;0.38;100.00;93927.41;4990911;28;20410;-66
2022/12/02 04:33:20;;;;;;;21.95;8.13;;;;;;;0.39;100.00;93920.84;4991295;28;20050;-67
2022/12/02 04:35:47;;;;;;;24.10;8.82;;;;;;;0.38;100.00;93918.50;4973449;28;20038;-66
2022/12/02 04:38:13;;;;;;;22.90;8.93;;;;;;;0.56;100.00;93916.22;4976185;28;20046;-67
2022/12/02 04:40:40;;;;;;;23.17;8.63;;;;;;;0.54;100.00;93921.19;4979254;28;20043;-67
2022/12/02 04:43:07;;;;;;;26.38;9.30;;;;;;;0.71;100.00;93925.44;4990592;28;20303;-66
2022/12/02 04:45:34;;;;;;;22.52;9.05;;;;;;;0.56;100.00;93916.22;4982852;28;20160;-66
2022/12/02 04:48:00;;;;;;;23.27;8.73;;;;;;;0.58;100.00;93917.44;4980012;28;20125;-66
2022/12/02 04:50:27;;;;;;;25.55;9.05;;;;;;;0.50;100.00;93914.91;4971593;28;20047;-67
2022/12/02 04:52:54;;;;;;;22.65;8.05;;;;;;;0.60;100.00;93917.06;4954284;28;20054;-66
2022/12/02 04:55:20;;;;;;;21.55;8.43;;;;;;;0.50;100.00;93920.31;4970514;28;20051;-66
2022/12/02 04:57:47;;;;;;;21.55;7.97;;;;;;;0.21;100.00;93918.88;4986812;28;20495;-66
2022/12/02 05:00:14;;;;;;;23.05;7.90;;;;;;;0.28;100.00;93922.53;4971255;28;20062;-66
2022/12/02 05:02:41;;;;;;;20.38;7.90;;;;;;;0.35;100.00;93917.28;4971278;28;20382;-67
2022/12/02 05:05:08;;;;;;;20.33;8.13;;;;;;;0.17;100.00;93911.47;4978770;28;20269;-67
2022/12/02 05:07:34;;;;;;;17.67;7.55;;;;;;;0.13;100.00;93918.72;4970880;28;20726;-67
2022/12/02 05:10:03;;;;;;;19.13;7.68;;;;;;;0.13;100.00;93920.63;4970939;28;20542;-67
2022/12/02 05:12:29;;;;;;;19.38;7.45;;;;;;;0.18;100.00;93914.94;4968342;28;20054;-67
2022/12/02 05:14:56;;;;;;;19.10;7.60;;;;;;;0.33;100.00;93908.00;4972383;28;20061;-66
2022/12/02 05:17:23;;;;;;;17.65;6.90;;;;;;;0.33;100.00;93911.47;4971252;28;20133;-66
2022/12/02 05:19:49;;;;;;;20.67;7.00;;;;;;;0.33;100.00;93910.69;4970592;28;20047;-66
2022/12/02 05:22:16;;;;;;;17.90;6.87;;;;;;;0.31;100.00;93907.56;4970216;28;20527;-66
2022/12/02 05:24:43;;;;;;;19.23;7.38;;;;;;;0.29;100.00;93910.59;4978306;28;20072;-66
2022/12/02 05:27:11;;;;;;;18.58;7.70;;;;;;;0.28;100.00;93909.03;4971148;28;20412;-67
2022/12/02 05:29:37;;;;;;;19.15;7.30;;;;;;;0.16;100.00;93911.81;4970790;28;20395;-66
2022/12/02 05:32:04;;;;;;;15.65;6.88;;;;;;;0.35;100.00;93908.41;4973524;28;20100;-66
2022/12/02 05:34:31;;;;;;;15.77;6.70;;;;;;;0.34;100.00;93902.25;4983759;28;20045;-66
2022/12/02 05:36:57;;;;;;;18.90;6.60;;;;;;;0.13;100.00;93907.91;4974733;28;20050;-66
2022/12/02 05:39:24;;;;;;;15.35;6.78;;;;;;;0.30;100.00;93908.69;4972460;28;20097;-66
2022/12/02 05:41:51;;;;;;;14.10;6.00;;;;;;;0.02;100.00;93922.28;4986913;28;20092;-66
2022/12/02 05:44:19;;;;;;;15.32;6.88;;;;;;;0.15;100.00;93910.28;4977241;28;20047;-66
2022/12/02 05:46:47;;;;;;;22.15;6.10;;;;;;;0.12;100.00;93916.34;4985839;28;21546;-66
2022/12/02 05:49:19;;;;;;;15.70;6.28;;;;;;;0.07;100.00;93919.31;4971123;28;20042;-66
2022/12/02 05:51:54;;;;;;;16.17;6.40;;;;;;;0.08;100.00;93916.28;4970346;28;20051;-66
2022/12/02 05:54:23;;;;;;;15.10;6.45;;;;;;;0.12;100.00;93917.16;4976427;28;20754;-66
2022/12/02 05:56:50;;;;;;;15.73;7.05;;;;;;;0.29;100.00;93920.63;4989213;28;20450;-66
2022/12/02 05:59:20;;;;;;;14.02;6.18;;;;;;;0.32;100.00;93912.63;4985435;28;20416;-66
2022/12/02 06:01:50;;;;;;;15.38;6.57;;;;;;;0.28;100.00;93916.34;4968559;28;20057;-66
2022/12/02 06:04:23;;;;;;;14.00;6.20;;;;;;;0.24;100.00;93915.47;4970572;28;20070;-66
2022/12/02 06:06:54;;;;;;;16.70;7.30;;;;;;;0.13;100.00;93923.31;4969907;28;20042;-66
2022/12/02 06:09:27;;;;;;;16.02;6.82;;;;;;;0.08;100.00;93913.59;4970290;28;20051;-66
2022/12/02 06:11:55;;;;;;;16.00;6.60;;;;;;;0.32;100.00;93920.72;4979333;28;20123;-66
2022/12/02 06:14:24;;;;;;;15.05;6.75;;;;;;;0.40;100.00;93916.22;4980611;28;20502;-66
2022/12/02 06:17:03;;;;;;;13.82;6.00;;;;;;;0.37;100.00;93911.56;4986007;28;20058;-65
2022/12/02 06:19:43;;;;;;;14.18;6.10;;;;;;;0.45;100.00;93909.81;4989487;28;20065;-67
2022/12/02 06:22:42;;;;;;;16.05;7.00;;;;;;;0.50;100.00;93909.53;4991443;28;20814;-66
2022/12/02 06:25:25;;;;;;;13.25;5.57;;;;;;;0.10;100.00;93918.63;4959247;28;20757;-66
2022/12/02 06:28:05;;;;;;;15.18;6.60;;;;;;;0.11;100.00;93915.56;4993122;28;20054;-65
2022/12/02 06:30:36;;;;;;;14.65;5.80;;;;;;;0.38;100.00;93908.50;4981293;28;20061;-66
2022/12/02 06:33:03;;;;;;;15.73;7.03;;;;;;;0.24;100.00;93908.16;4993009;28;20508;-67
2022/12/02 06:35:32;;;;;;;16.75;6.43;;;;;;;0.25;100.00;93911.66;4993284;28;20399;-66
2022/12/02 06:38:11;;;;;;;16.27;6.47;;;;;;;0.36;100.00;93902.69;4992367;28;20447;-66
2022/12/02 06:40:38;;;;;;;13.45;6.40;;;;;;;0.34;100.00;93906.84;4992897;28;20434;-66
2022/12/02 06:43:15;;;;;;;16.23;7.07;;;;;;;0.25;100.00;93908.97;4992827;28;20497;-66
2022/12/02 06:45:44;;;;;;;19.30;7.15;;;;;;;0.29;100.00;93899.03;4992270;28;20069;-65
2022/12/02 06:48:30;;;;;;;17.27;7.07;;;;;;;0.14;100.00;93897.91;4992865;28;20064;-66
2022/12/02 06:51:10;;;;;;;16.40;6.55;;;;;;;0.11;100.00;93904.78;4991779;28;20054;-67
2022/12/02 06:53:39;;;;;;;18.20;7.70;;;;;;;0.04;100.00;93904.63;5008058;28;20047;-67
2022/12/02 06:56:28;;;;;;;17.42;6.90;;;;;;;0.25;100.00;93898.94;4992365;28;20541;-66
2022/12/02 06:59:00;;;;;;;16.50;7.13;;;;;;;0.09;100.00;93911.66;4976896;28;20038;-66
2022/12/02 07:01:42;;;;;;;18.27;7.63;;;;;;;0.08;100.00;93905.50;4992508;28;20046;-66
2022/12/02 07:04:09;;;;;;;18.75;7.97;;;;;;;0.10;100.00;93910.53;4991818;28;20640;-67
2022/12/02 07:06:44;;;;;;;18.55;7.57;;;;;;;0.24;100.00;93897.34;4989254;28;20348;-66
2022/12/02 07:09:15;;;;;;;18.95;6.95;;;;;;;0.25;100.00;93898.94;4974092;28;20436;-66
2022/12/02 07:11:50;;;;;;;19.90;7.93;;;;;;;0.26;100.00;93908.59;4986576;28;20116;-65
2022/12/02 07:14:32;;;;;;;19.00;7.22;;;;;;;0.28;100.00;93900.16;4991834;28;20069;-66
2022/12/02 07:17:02;;;;;;;17.38;6.95;;;;;;;0.37;100.00;93900.75;4991951;28;20051;-66
2022/12/02 07:19:37;;;;;;;18.60;7.65;;;;;;;0.60;100.00;93898.16;4991355;28;20046;-66
2022/12/02 07:22:14;;;;;;;18.50;8.10;;;;;;;0.21;100.00;93898.06;4991171;28;20042;-66
2022/12/02 07:24:42;;;;;;;16.35;7.15;;;;;;;0.36;100.00;93902.69;4992167;28;20042;-66
2022/12/02 07:27:21;;;;;;;18.05;8.18;;;;;;;0.42;100.00;93905.09;4991240;28;20434;-67
2022/12/02 07:29:49;;;;;;;16.90;7.57;;;;;;;0.39;100.00;93899.25;4991356;28;20046;-66
2022/12/02 07:32:16;;;;;;;18.92;7.55;;;;;;;0.52;100.00;93904.53;4991926;28;20042;-66
2022/12/02 07:34:43;;;;;;;19.08;7.55;;;;;;;0.67;100.00;93902.97;4991438;28;20088;-66
2022/12/02 07:37:09;;;;;;;16.23;7.10;;;;;;;0.54;100.00;93903.09;4974704;28;20392;-66
2022/12/02 07:39:36;;;;;;;18.65;7.43;;;;;;;0.45;100.00;93899.00;4992250;28;20414;-66
2022/12/02 07:42:02;;;;;;;13.82;6.18;;;;;;;0.75;100.00;93899.28;4991551;28;20042;-67
2022/12/02 07:44:29;;;;;;;18.50;7.35;;;;;;;0.42;100.00;93903.16;4991289;28;20042;-66
2022/12/02 07:46:56;;;;;;;17.52;7.32;;;;;;;0.42;100.00;93903.16;4991109;28;20466;-66
2022/12/02 07:49:22;;;;;;;19.25;7.60;;;;;;;0.43;100.00;93902.03;4991969;28;20077;-66
2022/12/02 07:51:49;;;;;;;20.00;8.35;;;;;;;0.39;100.00;93895.78;4990538;28;20043;-66
2022/12/02 07:54:16;;;;;;;18.50;7.28;;;;;;;0.43;100.00;93896.66;4991792;28;20044;-67
2022/12/02 07:56:43;;;;;;;20.35;8.30;;;;;;;0.43;100.00;93901.28;4990778;28;20184;-68
2022/12/02 07:59:10;;;;;;;20.17;8.15;;;;;;;0.49;100.00;93903.34;4990953;28;20042;-67
2022/12/02 08:01:39;;;;;;;19.55;7.97;;;;;;;0.23;100.00;93895.81;4990814;28;20556;-66
2022/12/02 08:04:06;;;;;;;20.48;9.05;;;;;;;0.26;100.00;93900.50;4991287;28;20056;-66
2022/12/02 08:06:33;;;;;;;22.42;9.15;;;;;;;0.39;100.00;93903.88;5006137;28;20057;-66
2022/12/02 08:09:06;;;;;;;19.13;8.55;;;;;;;0.61;100.00;93904.38;4991465;28;20498;-66
2022/12/02 08:11:32;;;;;;;19.83;8.20;;;;;;;0.48;100.00;93907.16;5003651;28;20406;-66
2022/12/02 08:13:59;;;;;;;18.23;8.23;;;;;;;0.29;100.00;93905.19;4990247;28;20046;-66
2022/12/02 08:16:26;;;;;;;19.58;8.23;;;;;;;0.24;100.00;93905.44;4991470;28;20050;-66
2022/12/02 08:18:53;;;;;;;22.42;9.30;;;;;;;0.28;100.00;93900.16;4990871;28;20073;-67
2022/12/02 08:21:19;;;;;;;23.42;9.32;;;;;;;0.44;100.00;93908.22;4973857;28;20046;-66
2022/12/02 08:23:46;;;;;;;23.42;8.98;;;;;;;0.54;100.00;93904.97;4971800;28;20467;-65
2022/12/02 08:26:13;;;;;;;33.75;13.05;;;;;;;0.41;100.00;93901.63;4989993;28;20038;-65
2022/12/02 08:28:40;;;;;;;25.95;10.68;;;;;;;0.25;100.00;93901.63;4991183;28;20061;-65
2022/12/02 08:31:07;;;;;;;27.90;10.63;;;;;;;0.41;100.00;93904.31;4990235;28;20280;-65
2022/12/02 08:33:34;;;;;;;33.83;12.52;;;;;;;0.53;100.00;93904.19;4991391;28;20048;-66
2022/12/02 08:36:00;;;;;;;24.17;9.40;;;;;;;0.56;100.00;93902.72;4990520;28;20042;-65
2022/12/02 08:38:27;;;;;;;20.60;8.43;;;;;;;0.38;100.00;93902.31;4991528;28;20614;-66
2022/12/02 08:40:54;;;;;;;22.40;8.82;;;;;;;0.53;100.00;93906.91;4990679;28;20052;-65
2022/12/02 08:43:21;;;;;;;22.58;9.40;;;;;;;0.34;100.00;93904.13;4977191;28;20043;-65
2022/12/02 08:45:48;;;;;;;20.80;8.52;;;;;;;0.62;100.00;93900.53;4990509;28;20184;-65
2022/12/02 08:48:15;;;;;;;21.13;7.82;;;;;;;0.68;100.00;93905.28;4990964;28;20446;-65
2022/12/02 08:50:42;;;;;;;25.25;9.57;;;;;;;0.49;100.00;93895.25;4990044;28;20050;-64
2022/12/02 08:53:09;;;;;;;39.63;14.43;;;;;;;0.40;100.00;93902.75;4973727;28;20049;-65
2022/12/02 08:55:35;;;;;;;31.60;11.27;;;;;;;0.54;100.00;93899.56;4990883;28;20074;-65
2022/12/02 08:58:02;;;;;;;25.27;11.30;;;;;;;0.58;100.00;93905.84;4990270;28;20470;-65
2022/12/02 09:00:29;;;;;;;27.88;12.13;;;;;;;0.58;100.00;93897.75;4990571;28;20100;-65
2022/12/02 09:03:05;;;;;;;26.13;10.00;;;;;;;0.54;100.00;93894.19;4990212;28;20056;-65
2022/12/02 09:05:32;;;;;;;23.02;9.40;;;;;;;0.84;100.00;93890.97;4990787;28;20066;-66
2022/12/02 09:07:58;;;;;;;21.30;8.73;;;;;;;0.63;100.00;93883.97;5004996;28;20052;-66
2022/12/02 09:10:25;;;;;;;21.05;8.80;;;;;;;0.74;100.00;93886.88;4990536;28;20038;-65
2022/12/02 09:12:52;;;;;;;20.05;8.77;;;;;;;0.70;100.00;93881.41;4990251;28;20479;-65
2022/12/02 09:15:20;;;;;;;16.98;8.15;;;;;;;1.14;100.00;93883.84;4990579;28;20053;-66
2022/12/02 09:17:47;;;;;;;17.58;7.45;;;;;;;1.39;100.00;93878.16;4989824;28;20439;-65
2022/12/02 09:20:15;;;;;;;16.15;7.80;;;;;;;1.07;100.00;93881.03;4986799;28;20055;-66
2022/12/02 09:22:46;;;;;;;16.63;7.85;;;;;;;0.87;100.00;93888.34;4970205;28;20047;-65
2022/12/02 09:25:13;;;;;;;17.85;8.80;;;;;;;0.72;100.00;93889.16;4982352;28;20045;-65
2022/12/02 09:27:41;;;;;;;15.93;7.60;;;;;;;0.70;100.00;93886.81;4990518;28;20057;-65
2022/12/02 09:30:09;;;;;;;16.02;7.28;;;;;;;0.68;100.00;93889.09;4981356;28;20119;-65
2022/12/02 09:32:36;;;;;;;14.57;6.82;;;;;;;1.23;100.00;93889.06;4983225;28;20109;-65
2022/12/02 09:35:03;;;;;;;14.80;7.10;;;;;;;1.32;100.00;93888.84;4972970;28;20054;-66
2022/12/02 09:37:30;;;;;;;15.32;7.13;;;;;;;1.61;100.00;93884.75;4983875;28;20039;-65
2022/12/02 09:39:57;;;;;;;13.32;6.60;;;;;;;1.93;100.00;93892.63;4986231;28;20042;-65
2022/12/02 09:42:24;;;;;;;12.73;6.22;;;;;;;1.97;100.00;93885.34;4970774;28;20150;-65
2022/12/02 09:44:52;;;;;;;15.50;7.32;;;;;;;2.22;100.00;93879.56;4970230;28;20377;-65
2022/12/02 09:47:20;;;;;;;15.57;7.78;;;;;;;2.18;100.00;93879.50;4971074;28;20046;-65
2022/12/02 09:49:47;;;;;;;13.35;6.30;;;;;;;2.36;100.00;93877.06;4970200;28;20375;-65
2022/12/02 09:52:20;;;;;;;12.57;6.05;;;;;;;2.27;100.00;93876.53;4970799;28;20038;-65
2022/12/02 09:54:54;;;;;;;12.38;5.90;;;;;;;2.31;99.30;93867.31;4972312;28;20061;-65
2022/12/02 09:57:26;;;;;;;11.60;5.97;;;;;;;2.62;98.87;93864.66;4977190;28;20034;-65
2022/12/02 09:59:53;;;;;;;11.00;5.70;;;;;;;2.58;97.51;93861.91;4976069;28;20061;-65
2022/12/02 10:02:38;;;;;;;13.10;6.30;;;;;;;2.55;97.32;93857.22;4972300;28;20046;-65
2022/12/02 10:05:27;;;;;;;13.02;6.43;;;;;;;2.60;98.26;93854.22;4972644;28;20488;-66
2022/12/02 10:07:56;;;;;;;12.65;6.40;;;;;;;2.63;97.38;93861.59;4972832;28;20066;-64
2022/12/02 10:10:27;;;;;;;11.48;5.75;;;;;;;2.73;97.85;93858.25;4973527;28;20047;-64
2022/12/02 10:12:54;;;;;;;11.27;6.20;;;;;;;2.91;96.39;93860.41;4972884;28;20061;-65
2022/12/02 10:15:24;;;;;;;11.27;5.78;;;;;;;2.83;94.30;93858.75;4973178;28;20419;-64
2022/12/02 10:17:51;;;;;;;11.52;5.38;;;;;;;2.84;93.96;93846.75;4955355;28;20158;-65
2022/12/02 10:20:21;;;;;;;12.23;5.57;;;;;;;2.74;92.70;93850.91;4974200;28;20051;-65
2022/12/02 10:23:21;;;;;;;12.83;5.80;;;;;;;2.88;92.18;93855.72;4974031;28;20096;-65
2022/12/02 10:25:53;;;;;;;16.25;6.75;;;;;;;2.76;92.83;93845.91;4978564;28;20092;-65
2022/12/02 10:28:27;;;;;;;14.25;6.70;;;;;;;2.73;94.11;93835.78;4973163;28;20043;-65
2022/12/02 10:31:21;;;;;;;18.25;6.50;;;;;;;2.73;94.17;93841.97;4970895;28;20401;-65
2022/12/02 10:33:53;;;;;;;17.83;7.10;;;;;;;2.94;94.25;93838.78;4970881;28;20108;-66
2022/12/02 10:36:37;;;;;;;12.33;5.77;;;;;;;3.11;93.48;93836.63;4972599;28;20094;-66
2022/12/02 10:39:19;;;;;;;11.63;5.43;;;;;;;3.38;92.06;93834.59;4983137;28;20420;-66
2022/12/02 10:42:07;;;;;;;15.10;6.65;;;;;;;3.45;91.68;93834.69;4974957;28;20046;-66
2022/12/02 10:44:41;;;;;;;13.65;6.22;;;;;;;3.17;93.11;93832.44;4972712;28;20108;-66
2022/12/02 10:47:14;;;;;;;10.93;5.70;;;;;;;3.25;93.41;93825.19;4979539;28;21725;-66
2022/12/02 10:49:55;;;;;;;9.30;5.20;;;;;;;3.18;93.47;93828.59;4972753;28;20046;-66
2022/12/02 10:52:28;;;;;;;11.00;5.70;;;;;;;3.10;92.36;93822.31;4979657;28;20794;-66
2022/12/02 10:54:56;;;;;;;9.85;5.22;;;;;;;2.99;89.52;93813.25;4971841;28;20047;-65
2022/12/02 10:57:26;;;;;;;10.30;4.78;;;;;;;2.90;90.36;93820.91;4991697;28;20051;-65
2022/12/02 10:59:55;;;;;;;11.13;5.13;;;;;;;3.07;91.43;93814.13;4970698;28;20050;-65
2022/12/02 11:02:45;;;;;;;9.80;5.10;;;;;;;2.77;91.51;93813.00;5046913;28;20392;-65
2022/12/02 11:05:23;;;;;;;9.15;5.05;;;;;;;2.76;91.32;93816.88;5046066;28;20045;-65
2022/12/02 11:07:50;;;;;;;8.57;4.85;;;;;;;2.66;91.10;93814.03;5045666;28;20053;-64
2022/12/02 11:10:20;;;;;;;9.45;5.25;;;;;;;2.54;92.25;93809.63;5047127;28;20037;-64
2022/12/02 11:12:49;;;;;;;11.25;5.55;;;;;;;2.54;93.04;93812.31;5045756;28;20095;-64
2022/12/02 11:15:32;;;;;;;10.48;5.75;;;;;;;2.42;93.17;93812.56;5046835;28;20072;-64
2022/12/02 11:18:00;;;;;;;12.87;6.23;;;;;;;2.60;94.20;93810.84;5046108;28;20041;-64
2022/12/02 11:20:35;;;;;;;10.77;5.82;;;;;;;2.67;92.93;93810.94;5046177;28;20090;-65
2022/12/02 11:23:18;;;;;;;11.35;5.95;;;;;;;2.80;92.17;93801.44;5045614;28;20041;-65
2022/12/02 11:25:48;;;;;;;12.27;6.68;;;;;;;2.83;93.05;93804.56;5032237;28;20059;-64
2022/12/02 11:28:36;;;;;;;11.00;6.07;;;;;;;2.70;92.90;93796.66;5045866;28;20049;-65
2022/12/02 11:31:09;;;;;;;10.17;5.20;;;;;;;2.74;91.47;93796.72;5035149;28;20045;-65
2022/12/02 11:34:00;;;;;;;10.88;5.47;;;;;;;2.82;91.04;93795.66;5046382;28;20500;-65
2022/12/02 11:36:33;;;;;;;12.43;5.70;;;;;;;2.74;90.78;93791.28;5045452;28;20546;-65
2022/12/02 11:39:06;;;;;;;17.95;5.07;;;;;;;2.84;91.27;93790.63;5045414;28;20034;-65
2022/12/02 11:41:48;;;;;;;12.05;5.45;;;;;;;2.98;90.21;93790.03;5046406;28;20059;-65